createdAt,value
2022-09-20T00:01:34.420Z,75.65
2022-09-20T00:04:06.980Z,75.50
2022-09-20T00:06:35.804Z,75.96
2022-09-20T00:09:05.779Z,76.45
2022-09-20T00:11:36.373Z,75.90
2022-09-20T00:14:08.736Z,76.76
2022-09-20T00:16:40.589Z,76.81
2022-09-20T00:19:16.192Z,76.66
2022-09-20T00:21:44.525Z,76.93
2022-09-20T00:24:12.912Z,76.44
2022-09-20T00:26:41.511Z,76.93
2022-09-20T00:29:09.807Z,76.58
2022-09-20T00:31:40.284Z,76.93
2022-09-20T00:34:29.091Z,76.88
2022-09-20T00:36:57.473Z,76.69
2022-09-20T00:39:25.998Z,76.84
2022-09-20T00:41:54.367Z,77.47
2022-09-20T00:44:45.339Z,77.72
2022-09-20T00:47:22.589Z,77.64
2022-09-20T00:49:57.381Z,77.71
2022-09-20T00:52:26.782Z,77.85
2022-09-20T00:54:56.228Z,77.75
2022-09-20T00:57:25.331Z,77.99
2022-09-20T00:59:55.076Z,78.18
2022-09-20T01:02:28.917Z,78.22
2022-09-20T01:04:59.882Z,78.13
2022-09-20T01:07:28.478Z,78.55
2022-09-20T01:09:57.361Z,78.31
2022-09-20T01:12:30.305Z,78.43
2022-09-20T01:15:00.710Z,78.69
2022-09-20T01:17:32.567Z,78.91
2022-09-20T01:20:14.610Z,79.20
2022-09-20T01:22:54.111Z,78.72
2022-09-20T01:25:41.170Z,78.56
2022-09-20T01:28:10.889Z,78.63
2022-09-20T01:30:44.847Z,78.99
2022-09-20T01:33:24.607Z,79.12
2022-09-20T01:35:55.623Z,79.32
2022-09-20T01:38:35.634Z,79.41
2022-09-20T01:41:08.887Z,78.80
2022-09-20T01:43:44.343Z,79.21
2022-09-20T01:46:29.930Z,79.65
2022-09-20T01:49:08.160Z,79.18
2022-09-20T01:52:07.521Z,79.36
2022-09-20T01:55:12.314Z,79.33
2022-09-20T01:58:14.031Z,79.14
2022-09-20T02:01:02.728Z,79.40
2022-09-20T02:03:55.656Z,79.03
2022-09-20T02:06:46.463Z,79.03
2022-09-20T02:09:37.100Z,79.46
2022-09-20T02:12:39.804Z,78.92
2022-09-20T02:15:18.817Z,79.02
2022-09-20T02:18:00.125Z,79.22
2022-09-20T02:20:37.108Z,79.33
2022-09-20T02:23:17.443Z,79.24
2022-09-20T02:26:16.188Z,79.15
2022-09-20T02:29:10.330Z,78.79
2022-09-20T02:31:56.057Z,78.73
2022-09-20T02:34:45.109Z,79.10
2022-09-20T02:37:34.656Z,78.86
2022-09-20T02:40:21.262Z,78.87
2022-09-20T02:42:56.876Z,79.16
2022-09-20T02:45:34.057Z,79.39
2022-09-20T02:48:05.980Z,79.09
2022-09-20T02:50:43.471Z,78.96
2022-09-20T02:53:28.180Z,78.94
2022-09-20T02:56:05.868Z,79.30
2022-09-20T02:58:45.772Z,78.65
2022-09-20T03:01:26.517Z,78.63
2022-09-20T03:04:03.534Z,78.82
2022-09-20T03:06:42.703Z,78.48
2022-09-20T03:09:19.416Z,78.10
2022-09-20T03:11:55.087Z,78.06
2022-09-20T03:14:29.403Z,78.38
2022-09-20T03:17:07.060Z,78.49
2022-09-20T03:19:53.019Z,79.09
2022-09-20T03:22:38.411Z,78.97
2022-09-20T03:25:27.235Z,79.32
2022-09-20T03:28:09.570Z,79.11
2022-09-20T03:30:50.960Z,79.06
2022-09-20T03:33:29.431Z,79.45
2022-09-20T03:36:13.458Z,79.56
2022-09-20T03:39:08.171Z,80.09
2022-09-20T03:41:53.962Z,79.77
2022-09-20T03:44:36.909Z,79.54
2022-09-20T03:47:15.815Z,79.42
2022-09-20T03:50:15.138Z,79.78
2022-09-20T03:53:01.991Z,79.97
2022-09-20T03:55:53.931Z,79.89
2022-09-20T03:58:36.284Z,79.87
2022-09-20T04:01:26.174Z,79.50
2022-09-20T04:04:03.210Z,79.90
2022-09-20T04:06:54.589Z,80.17
2022-09-20T04:09:55.321Z,79.80
2022-09-20T04:12:32.624Z,80.06
2022-09-20T04:15:17.088Z,80.06
2022-09-20T04:17:53.343Z,79.89
2022-09-20T04:20:29.039Z,79.56
2022-09-20T04:23:00.710Z,79.84
2022-09-20T04:25:40.701Z,80.03
2022-09-20T04:28:22.666Z,79.88
2022-09-20T04:30:55.426Z,80.04
2022-09-20T04:33:29.304Z,79.90
2022-09-20T04:36:27.723Z,80.59
2022-09-20T04:39:16.186Z,80.40
2022-09-20T04:42:30.157Z,80.31
2022-09-20T04:45:42.752Z,80.14
2022-09-20T04:48:33.340Z,80.34
2022-09-20T04:51:27.152Z,80.38
2022-09-20T04:54:39.112Z,80.61
2022-09-20T04:57:34.474Z,80.66
2022-09-20T05:00:08.732Z,79.79
2022-09-20T05:03:15.625Z,80.19
2022-09-20T05:06:05.125Z,80.17
2022-09-20T05:09:02.675Z,79.99
2022-09-20T05:12:03.562Z,80.08
2022-09-20T05:14:55.365Z,80.39
2022-09-20T05:17:37.194Z,80.37
2022-09-20T05:20:31.849Z,80.27
2022-09-20T05:23:31.992Z,80.79
2022-09-20T05:26:14.812Z,80.34
2022-09-20T05:28:54.843Z,80.48
2022-09-20T05:31:34.171Z,80.46
2022-09-20T05:34:13.759Z,80.32
2022-09-20T05:36:56.666Z,79.96
2022-09-20T05:39:35.636Z,80.63
2022-09-20T05:42:16.808Z,80.06
2022-09-20T05:45:18.086Z,80.63
2022-09-20T05:47:56.291Z,80.00
2022-09-20T05:50:43.826Z,80.36
2022-09-20T05:53:39.077Z,80.08
2022-09-20T05:56:19.311Z,80.00
2022-09-20T05:59:12.300Z,80.01
2022-09-20T06:01:43.427Z,80.05
2022-09-20T06:04:19.028Z,80.02
2022-09-20T06:06:57.007Z,80.28
2022-09-20T06:09:45.481Z,80.22
2022-09-20T06:12:31.863Z,80.19
2022-09-20T06:15:13.531Z,79.61
2022-09-20T06:17:46.319Z,79.70
2022-09-20T06:20:26.724Z,79.86
2022-09-20T06:22:56.972Z,79.88
2022-09-20T06:25:31.475Z,79.64
2022-09-20T06:28:06.168Z,79.45
2022-09-20T06:30:38.293Z,79.67
2022-09-20T06:33:15.722Z,79.44
2022-09-20T06:35:50.042Z,79.43
2022-09-20T06:39:02.401Z,79.11
2022-09-20T06:41:36.211Z,79.02
2022-09-20T06:44:06.484Z,79.13
2022-09-20T06:46:36.879Z,78.79
2022-09-20T06:49:09.578Z,79.01
2022-09-20T06:51:40.064Z,78.80
2022-09-20T06:54:15.414Z,79.01
2022-09-20T06:56:47.176Z,78.79
2022-09-20T06:59:16.228Z,78.92
2022-09-20T07:01:44.706Z,78.56
2022-09-20T07:04:13.311Z,78.49
2022-09-20T07:06:41.929Z,78.25
2022-09-20T07:09:12.574Z,78.44
2022-09-20T07:11:40.984Z,78.18
2022-09-20T07:14:10.911Z,78.13
2022-09-20T07:16:40.078Z,78.27
2022-09-20T07:19:08.477Z,78.08
2022-09-20T07:21:37.040Z,78.32
2022-09-20T07:24:05.590Z,78.28
2022-09-20T07:26:34.153Z,78.24
2022-09-20T07:29:02.960Z,78.16
2022-09-20T07:31:32.919Z,78.17
2022-09-20T07:34:01.848Z,78.27
2022-09-20T07:36:30.298Z,77.97
2022-09-20T07:38:58.737Z,78.23
2022-09-20T07:41:32.305Z,78.28
2022-09-20T07:44:21.298Z,78.11
2022-09-20T07:46:51.448Z,77.94
2022-09-20T07:49:20.710Z,77.58
2022-09-20T07:51:49.898Z,77.60
2022-09-20T07:54:18.766Z,77.52
2022-09-20T07:56:47.611Z,77.61
2022-09-20T07:59:16.322Z,77.56
2022-09-20T08:01:44.815Z,77.54
2022-09-20T08:04:15.035Z,77.47
2022-09-20T08:06:46.368Z,77.77
2022-09-20T08:09:15.181Z,77.93
2022-09-20T08:11:43.852Z,78.09
2022-09-20T08:14:15.106Z,77.96
2022-09-20T08:16:44.923Z,77.88
2022-09-20T08:19:18.351Z,77.79
2022-09-20T08:21:46.954Z,77.89
2022-09-20T08:24:16.412Z,77.65
2022-09-20T08:26:45.613Z,77.72
2022-09-20T08:29:15.287Z,77.50
2022-09-20T08:31:43.989Z,77.13
2022-09-20T08:34:15.098Z,76.95
2022-09-20T08:36:47.402Z,76.63
2022-09-20T08:42:14.238Z,76.28
2022-09-20T08:44:59.992Z,76.11
2022-09-20T08:47:32.042Z,76.09
2022-09-20T08:50:09.031Z,75.95
2022-09-20T08:52:41.476Z,76.22
2022-09-20T08:55:17.084Z,76.23
2022-09-20T08:57:50.081Z,76.28
2022-09-20T09:00:21.130Z,76.44
2022-09-20T09:02:51.736Z,76.76
2022-09-20T09:05:36.401Z,77.40
2022-09-20T09:08:16.203Z,77.88
2022-09-20T09:10:46.927Z,78.42
2022-09-20T09:13:22.985Z,79.16
2022-09-20T09:15:57.757Z,79.51
2022-09-20T09:18:35.938Z,79.87
2022-09-20T09:21:05.883Z,80.19
2022-09-20T09:23:42.371Z,80.27
2022-09-20T09:26:21.223Z,80.73
2022-09-20T09:29:16.703Z,80.88
2022-09-20T09:31:45.500Z,80.52
2022-09-20T09:34:28.441Z,80.53
2022-09-20T09:36:57.368Z,80.37
2022-09-20T09:39:30.499Z,80.40
2022-09-20T09:42:00.923Z,81.15
2022-09-20T09:44:32.813Z,81.06
2022-09-20T09:47:01.551Z,81.30
2022-09-20T09:49:37.166Z,81.03
2022-09-20T09:52:14.503Z,81.62
2022-09-20T09:54:49.154Z,81.48
2022-09-20T09:57:39.388Z,81.59
2022-09-20T10:00:19.951Z,81.49
2022-09-20T10:03:17.362Z,82.27
2022-09-20T10:05:57.374Z,81.61
2022-09-20T10:08:36.241Z,81.50
2022-09-20T10:11:19.533Z,81.98
2022-09-20T10:13:54.289Z,81.79
2022-09-20T10:16:32.213Z,82.19
2022-09-20T10:19:08.050Z,81.87
2022-09-20T10:21:48.766Z,81.74
2022-09-20T10:24:30.604Z,81.94
2022-09-20T10:27:12.695Z,82.11
2022-09-20T10:29:57.252Z,81.90
2022-09-20T10:32:36.166Z,81.44
2022-09-20T10:35:26.219Z,81.43
2022-09-20T10:38:15.575Z,81.57
2022-09-20T10:41:13.586Z,81.46
2022-09-20T10:44:02.719Z,81.59
2022-09-20T10:46:45.560Z,81.38
2022-09-20T10:49:24.926Z,81.70
2022-09-20T10:52:11.671Z,81.37
2022-09-20T10:54:54.244Z,81.69
2022-09-20T10:58:01.590Z,81.88
2022-09-20T11:00:43.462Z,81.83
2022-09-20T11:03:26.688Z,81.59
2022-09-20T11:06:05.440Z,81.76
2022-09-20T11:08:35.582Z,82.04
2022-09-20T11:11:10.545Z,81.94
2022-09-20T11:13:45.615Z,81.91
2022-09-20T11:16:21.202Z,81.83
2022-09-20T11:18:56.033Z,82.00
2022-09-20T11:21:28.275Z,81.94
2022-09-20T11:24:03.703Z,81.51
2022-09-20T11:26:39.018Z,81.80
2022-09-20T11:29:23.555Z,81.51
2022-09-20T11:31:56.665Z,81.19
2022-09-20T11:34:30.574Z,81.05
2022-09-20T11:37:02.603Z,80.86
2022-09-20T11:39:40.498Z,80.88
2022-09-20T11:42:16.230Z,80.63
2022-09-20T11:44:44.941Z,80.33
2022-09-20T11:47:42.734Z,79.98
2022-09-20T11:50:46.851Z,78.58
2022-09-20T11:53:34.485Z,78.69
2022-09-20T11:56:08.745Z,78.53
2022-09-20T11:58:49.037Z,78.39
2022-09-20T12:01:28.494Z,78.46
2022-09-20T12:04:30.729Z,78.78
2022-09-20T12:07:01.629Z,78.12
2022-09-20T12:09:41.097Z,77.43
2022-09-20T12:12:20.158Z,76.62
2022-09-20T12:14:56.368Z,75.96
2022-09-20T12:18:05.523Z,75.84
2022-09-20T12:21:03.929Z,75.40
2022-09-20T12:24:08.574Z,75.23
2022-09-20T12:26:57.492Z,75.63
2022-09-20T12:30:04.192Z,74.91
2022-09-20T12:32:48.294Z,75.07
2022-09-20T12:35:53.244Z,74.78
2022-09-20T12:38:46.586Z,74.60
2022-09-20T12:41:27.588Z,74.93
2022-09-20T12:44:01.097Z,74.84
2022-09-20T12:46:43.605Z,74.77
2022-09-20T12:49:55.940Z,73.71
2022-09-20T12:52:56.300Z,73.82
2022-09-20T12:55:40.935Z,73.42
2022-09-20T12:58:22.922Z,73.01
2022-09-20T13:01:14.566Z,73.03
2022-09-20T13:03:45.058Z,73.02
2022-09-20T13:06:24.958Z,72.61
2022-09-20T13:09:02.145Z,72.69
2022-09-20T13:11:38.475Z,72.17
2022-09-20T13:14:13.446Z,71.89
2022-09-20T13:16:51.123Z,71.02
2022-09-20T13:19:21.345Z,70.79
2022-09-20T13:21:58.284Z,69.90
2022-09-20T13:24:29.796Z,69.91
2022-09-20T13:27:04.327Z,69.23
2022-09-20T13:29:35.839Z,68.85
2022-09-20T13:32:18.525Z,68.50
2022-09-20T13:34:46.993Z,68.88
2022-09-20T13:37:23.668Z,68.41
2022-09-20T13:39:55.608Z,68.35
2022-09-20T13:42:28.926Z,68.18
2022-09-20T13:44:59.627Z,68.00
2022-09-20T13:47:30.123Z,67.63
2022-09-20T13:50:02.973Z,67.72
2022-09-20T13:52:33.075Z,67.38
2022-09-20T13:55:01.436Z,67.30
2022-09-20T13:57:31.820Z,67.40
2022-09-20T14:00:02.250Z,67.48
2022-09-20T14:02:32.847Z,66.96
2022-09-20T14:05:03.243Z,66.79
2022-09-20T14:07:32.189Z,66.45
2022-09-20T14:10:00.901Z,66.42
2022-09-20T14:12:31.164Z,66.51
2022-09-20T14:14:59.846Z,66.62
2022-09-20T14:17:33.133Z,66.47
2022-09-20T14:20:01.900Z,66.60
2022-09-20T14:22:30.608Z,66.45
2022-09-20T14:25:02.350Z,66.22
2022-09-20T14:27:32.716Z,66.28
2022-09-20T14:30:02.379Z,66.09
2022-09-20T14:32:40.746Z,65.88
2022-09-20T14:35:16.957Z,66.17
2022-09-20T14:37:51.733Z,66.28
2022-09-20T14:40:24.332Z,66.10
2022-09-20T14:42:57.272Z,66.40
2022-09-20T14:45:30.257Z,66.41
2022-09-20T14:48:05.679Z,66.05
2022-09-20T14:50:41.055Z,66.17
2022-09-20T14:53:30.991Z,66.22
2022-09-20T14:56:07.953Z,66.43
2022-09-20T15:02:04.046Z,66.36
2022-09-20T15:04:35.387Z,66.44
2022-09-20T15:07:06.371Z,66.07
2022-09-20T15:09:35.498Z,66.43
2022-09-20T15:12:17.814Z,66.42
2022-09-20T15:14:46.506Z,66.77
2022-09-20T15:17:18.836Z,66.46
2022-09-20T15:19:47.673Z,66.57
2022-09-20T15:22:16.642Z,66.24
2022-09-20T15:24:45.147Z,65.97
2022-09-20T15:27:14.121Z,65.97
2022-09-20T15:29:42.484Z,65.90
2022-09-20T15:32:12.019Z,65.66
2022-09-20T15:34:41.855Z,65.52
2022-09-20T15:37:10.196Z,65.63
2022-09-20T15:39:38.538Z,66.09
2022-09-20T15:42:06.959Z,65.89
2022-09-20T15:44:35.338Z,66.03
2022-09-20T15:47:04.538Z,65.92
2022-09-20T15:49:33.240Z,66.18
2022-09-20T15:52:03.451Z,66.00
2022-09-20T15:54:31.958Z,66.10
2022-09-20T15:57:00.286Z,66.24
2022-09-20T15:59:29.302Z,66.20
2022-09-20T16:01:57.908Z,66.24
2022-09-20T16:04:27.195Z,66.26
2022-09-20T16:06:55.510Z,66.76
2022-09-20T16:09:25.262Z,66.86
2022-09-20T16:11:58.689Z,66.88
2022-09-20T16:14:27.363Z,67.04
2022-09-20T16:16:58.479Z,67.15
2022-09-20T16:19:26.201Z,67.46
2022-09-20T16:21:58.990Z,67.90
2022-09-20T16:24:30.958Z,67.93
2022-09-20T16:27:02.456Z,68.01
2022-09-20T16:29:31.257Z,68.38
2022-09-20T16:32:00.864Z,68.38
2022-09-20T16:34:31.374Z,68.57
2022-09-20T16:37:01.376Z,68.56
2022-09-20T16:39:32.073Z,68.67
2022-09-20T16:42:03.611Z,68.64
2022-09-20T16:44:32.353Z,68.67
2022-09-20T16:47:01.223Z,68.77
2022-09-20T16:49:29.870Z,68.97
2022-09-20T16:51:58.249Z,69.12
2022-09-20T16:54:31.563Z,69.02
2022-09-20T16:57:02.143Z,69.24
2022-09-20T16:59:30.530Z,69.18
2022-09-20T17:01:59.158Z,69.52
2022-09-20T17:04:27.753Z,69.34
2022-09-20T17:06:56.227Z,69.55
2022-09-20T17:09:24.612Z,69.67
2022-09-20T17:11:53.750Z,69.64
2022-09-20T17:14:24.969Z,69.75
2022-09-20T17:16:53.305Z,69.90
2022-09-20T17:19:21.943Z,69.85
2022-09-20T17:21:51.522Z,69.79
2022-09-20T17:24:21.622Z,69.95
2022-09-20T17:26:51.009Z,70.09
2022-09-20T17:29:20.619Z,70.37
2022-09-20T17:31:55.651Z,70.58
2022-09-20T17:34:26.296Z,70.48
2022-09-20T17:36:55.326Z,70.45
2022-09-20T17:39:24.429Z,70.47
2022-09-20T17:41:52.803Z,70.40
2022-09-20T17:44:21.276Z,70.50
2022-09-20T17:46:53.821Z,70.58
2022-09-20T17:49:24.152Z,70.61
2022-09-20T17:51:54.374Z,70.51
2022-09-20T17:54:24.474Z,70.64
2022-09-20T17:56:55.833Z,70.73
2022-09-20T17:59:24.982Z,70.68
2022-09-20T18:01:55.647Z,70.73
2022-09-20T18:04:25.240Z,70.78
2022-09-20T18:06:54.833Z,70.76
2022-09-20T18:09:25.271Z,70.84
2022-09-20T18:11:54.847Z,70.83
2022-09-20T18:14:24.554Z,71.01
2022-09-20T18:16:55.947Z,71.34
2022-09-20T18:19:24.360Z,71.25
2022-09-20T18:21:52.941Z,71.22
2022-09-20T18:24:21.269Z,71.29
2022-09-20T18:26:49.602Z,71.22
2022-09-20T18:29:18.505Z,71.14
2022-09-20T18:31:48.783Z,71.46
2022-09-20T18:34:20.610Z,71.60
2022-09-20T18:36:52.602Z,71.83
2022-09-20T18:39:21.620Z,71.84
2022-09-20T18:41:50.773Z,71.81
2022-09-20T18:44:19.412Z,71.93
2022-09-20T18:46:48.182Z,71.91
2022-09-20T18:49:18.001Z,72.07
2022-09-20T18:51:47.401Z,72.06
2022-09-20T18:54:16.641Z,72.32
2022-09-20T18:56:47.657Z,72.80
2022-09-20T18:59:18.456Z,72.95
2022-09-20T19:02:08.490Z,72.86
2022-09-20T19:04:55.194Z,73.00
2022-09-20T19:07:32.952Z,72.81
2022-09-20T19:10:09.202Z,72.92
2022-09-20T19:12:44.168Z,73.22
2022-09-20T19:15:37.225Z,73.23
2022-09-20T19:18:23.651Z,73.46
2022-09-20T19:20:59.402Z,73.12
2022-09-20T19:23:45.575Z,73.24
2022-09-20T19:26:21.906Z,73.01
2022-09-20T19:28:51.741Z,72.95
2022-09-20T19:31:25.498Z,73.73
2022-09-20T19:33:56.119Z,73.67
2022-09-20T19:36:36.333Z,74.04
2022-09-20T19:39:11.235Z,74.05
2022-09-20T19:41:51.975Z,74.44
2022-09-20T19:44:33.891Z,74.61
2022-09-20T19:47:22.328Z,74.33
2022-09-20T19:49:55.209Z,74.04
2022-09-20T19:52:26.045Z,74.05
2022-09-20T19:54:55.239Z,74.11
2022-09-20T19:57:28.479Z,74.19
2022-09-20T19:59:57.971Z,74.45
2022-09-20T20:02:26.871Z,74.53
2022-09-20T20:04:56.100Z,74.17
2022-09-20T20:07:34.599Z,73.98
2022-09-20T20:10:11.569Z,73.71
2022-09-20T20:12:48.665Z,74.15
2022-09-20T20:15:26.527Z,74.17
2022-09-20T20:18:01.901Z,73.87
2022-09-20T20:20:35.632Z,73.52
2022-09-20T20:23:42.383Z,74.03
2022-09-20T20:26:18.125Z,74.02
2022-09-20T20:28:46.577Z,74.41
2022-09-20T20:31:15.591Z,74.46
2022-09-20T20:33:44.428Z,74.42
2022-09-20T20:36:12.884Z,74.67
2022-09-20T20:38:49.449Z,74.83
2022-09-20T20:41:21.301Z,75.15
2022-09-20T20:43:57.073Z,75.34
2022-09-20T20:46:26.346Z,75.37
2022-09-20T20:48:54.770Z,75.01
2022-09-20T20:51:24.344Z,75.36
2022-09-20T20:53:55.528Z,75.73
2022-09-20T20:56:26.756Z,75.67
2022-09-20T20:58:55.224Z,75.54
2022-09-20T21:01:25.352Z,75.67
2022-09-20T21:03:54.997Z,75.99
2022-09-20T21:06:26.347Z,75.91
2022-09-20T21:08:56.284Z,75.94
2022-09-20T21:11:27.301Z,75.49
2022-09-20T21:13:58.224Z,76.01
2022-09-20T21:16:28.687Z,75.86
2022-09-20T21:18:58.078Z,76.32
2022-09-20T21:21:28.170Z,76.60
2022-09-20T21:24:00.090Z,77.06
2022-09-20T21:26:31.885Z,77.13
2022-09-20T21:29:02.386Z,77.13
2022-09-20T21:31:32.999Z,76.94
2022-09-20T21:34:01.819Z,77.06
2022-09-20T21:36:31.255Z,76.87
2022-09-20T21:39:00.947Z,77.51
2022-09-20T21:41:31.599Z,77.21
2022-09-20T21:44:02.251Z,77.26
2022-09-20T21:46:33.326Z,77.29
2022-09-20T21:49:04.011Z,76.98
2022-09-20T21:51:33.086Z,76.91
2022-09-20T21:54:03.898Z,77.27
2022-09-20T21:56:34.198Z,77.20
2022-09-20T21:59:04.225Z,77.40
2022-09-20T22:01:34.894Z,77.02
2022-09-20T22:04:07.065Z,76.76
2022-09-20T22:06:37.192Z,77.02
2022-09-20T22:09:09.569Z,77.28
2022-09-20T22:11:40.477Z,77.35
2022-09-20T22:14:09.915Z,77.53
2022-09-20T22:16:40.098Z,77.33
2022-09-20T22:19:09.963Z,77.41
2022-09-20T22:21:40.980Z,77.53
2022-09-20T22:24:12.141Z,77.57
2022-09-20T22:26:42.848Z,77.93
2022-09-20T22:29:11.901Z,77.90
2022-09-20T22:31:45.053Z,78.47
2022-09-20T22:34:16.138Z,78.37
2022-09-20T22:36:45.343Z,78.11
2022-09-20T22:39:16.243Z,77.97
2022-09-20T22:41:45.187Z,78.03
2022-09-20T22:44:13.523Z,78.14
2022-09-20T22:46:41.945Z,77.98
2022-09-20T22:49:10.935Z,78.13
2022-09-20T22:51:39.439Z,78.07
2022-09-20T22:54:09.223Z,78.36
2022-09-20T22:56:41.417Z,78.00
2022-09-20T22:59:11.858Z,77.79
2022-09-20T23:01:42.611Z,77.80
2022-09-20T23:04:12.783Z,78.33
2022-09-20T23:06:42.720Z,78.63
2022-09-20T23:09:12.557Z,78.68
2022-09-20T23:11:43.318Z,78.74
2022-09-20T23:14:14.421Z,78.22
2022-09-20T23:16:43.124Z,78.10
2022-09-20T23:19:12.344Z,78.46
2022-09-20T23:21:42.291Z,77.94
2022-09-20T23:24:13.495Z,77.73
2022-09-20T23:26:44.100Z,77.53
2022-09-20T23:29:14.632Z,77.73
2022-09-20T23:31:46.400Z,77.79
2022-09-20T23:34:16.721Z,77.73
2022-09-20T23:36:46.066Z,78.05
2022-09-20T23:39:14.898Z,77.68
2022-09-20T23:41:49.885Z,77.99
2022-09-20T23:44:19.154Z,78.38
2022-09-20T23:46:47.509Z,78.14
2022-09-20T23:49:15.866Z,78.64
2022-09-20T23:51:44.178Z,78.37
2022-09-20T23:54:12.751Z,78.87
2022-09-20T23:56:42.747Z,78.83
2022-09-20T23:59:12.673Z,78.60
